PAII

Egegik Airport

Airport
ICAO code
PAII
IATA Code
EGX
Summary
ICAO Region
NAM
ICAO Territory
Location

, Alaska

Serving
Egegik
Elevation
92 ft
Coordinates
58° 11' 8" N , 157° 22' 32" W
Metar
PAII 200656Z AUTO 29007KT 10SM CLR 12/10 A3026 RMK AO2 SLPNO T01170100

Runways

Designator Length Width Surface Rops
3/21 457 23 GVL No/No
12/30 1707 30 GVL No/No

Airport map

Aerial View

SKYbrary Partners:

Safety knowledge contributed by: